createdAt,value
2022-11-13T00:03:32.837Z,99041.56
2022-11-13T00:08:55.240Z,99030.72
2022-11-13T00:14:15.599Z,99032.78
2022-11-13T00:19:36.486Z,99031.03
2022-11-13T00:24:56.630Z,99025.44
2022-11-13T00:30:19.515Z,99020.31
2022-11-13T00:35:40.197Z,99012.34
2022-11-13T00:41:01.252Z,99014.53
2022-11-13T00:46:21.326Z,99013.47
2022-11-13T00:51:41.800Z,99008.41
2022-11-13T00:57:02.180Z,99003.69
2022-11-13T01:02:22.602Z,98994.22
2022-11-13T01:07:42.870Z,98982.66
2022-11-13T01:13:03.184Z,98986.03
2022-11-13T01:18:23.655Z,98986.03
2022-11-13T01:23:44.678Z,98982.88
2022-11-13T01:29:05.137Z,98983.28
2022-11-13T01:34:25.276Z,98976.13
2022-11-13T01:39:45.720Z,98974.75
2022-11-13T01:45:43.883Z,98978.81
2022-11-13T01:51:16.583Z,98969.66
2022-11-13T01:56:37.166Z,98968.16
2022-11-13T02:01:58.671Z,98961.84
2022-11-13T02:07:21.749Z,98951.56
2022-11-13T02:12:49.905Z,98940.66
2022-11-13T02:18:11.461Z,98931.72
2022-11-13T02:23:43.992Z,98928.56
2022-11-13T02:29:04.222Z,98921.88
2022-11-13T02:34:24.703Z,98915.91
2022-11-13T02:39:45.365Z,98916.84
2022-11-13T02:45:07.104Z,98915.56
2022-11-13T02:50:27.821Z,98911.06
2022-11-13T02:55:47.922Z,98923.38
2022-11-13T03:01:09.795Z,98913.03
2022-11-13T03:06:29.921Z,98907.22
2022-11-13T03:11:50.354Z,98910.47
2022-11-13T03:17:10.774Z,98915.94
2022-11-13T03:22:31.101Z,98909.41
2022-11-13T03:27:51.348Z,98913.53
2022-11-13T03:33:11.785Z,98910.38
2022-11-13T03:38:32.470Z,98903.78
2022-11-13T03:43:52.639Z,98902.81
2022-11-13T03:49:13.087Z,98899.34
2022-11-13T03:54:33.444Z,98897.75
2022-11-13T03:59:53.929Z,98907.00
2022-11-13T04:05:17.508Z,98905.19
2022-11-13T04:10:42.313Z,98899.66
2022-11-13T04:16:02.380Z,98889.00
2022-11-13T04:21:22.498Z,98880.72
2022-11-13T04:26:42.974Z,98890.84
2022-11-13T04:32:03.185Z,98879.81
2022-11-13T04:37:23.643Z,98874.16
2022-11-13T04:42:49.882Z,98870.47
2022-11-13T04:48:10.185Z,98868.63
2022-11-13T04:53:30.558Z,98878.50
2022-11-13T04:58:51.000Z,98871.16
2022-11-13T05:04:13.833Z,98864.88
2022-11-13T05:09:34.036Z,98855.63
2022-11-13T05:14:54.199Z,98843.94
2022-11-13T05:20:14.500Z,98841.16
2022-11-13T05:25:34.675Z,98847.13
2022-11-13T05:31:09.776Z,98838.03
2022-11-13T05:36:29.916Z,98846.50
2022-11-13T05:41:50.005Z,98835.50
2022-11-13T05:47:10.330Z,98834.16
2022-11-13T05:52:30.690Z,98833.34
2022-11-13T05:57:50.877Z,98824.88
2022-11-13T06:03:11.110Z,98807.00
2022-11-13T06:08:31.684Z,98811.22
2022-11-13T06:13:53.228Z,98799.63
2022-11-13T06:19:13.388Z,98798.50
2022-11-13T06:24:33.656Z,98789.38
2022-11-13T06:29:54.011Z,98790.56
2022-11-13T06:35:14.132Z,98787.25
2022-11-13T06:40:34.502Z,98776.56
2022-11-13T06:45:55.757Z,98776.78
2022-11-13T06:51:21.853Z,98786.75
2022-11-13T06:56:45.431Z,98781.66
2022-11-13T07:02:06.605Z,98776.81
2022-11-13T07:07:26.607Z,98774.09
2022-11-13T07:12:49.439Z,98783.47
2022-11-13T07:18:13.723Z,98784.38
2022-11-13T07:23:36.990Z,98775.78
2022-11-13T07:28:57.274Z,98778.53
2022-11-13T07:34:17.666Z,98792.00
2022-11-13T07:39:37.790Z,98786.78
2022-11-13T07:44:58.225Z,98773.03
2022-11-13T07:50:18.664Z,98766.38
2022-11-13T07:55:38.814Z,98773.53
2022-11-13T08:01:04.247Z,98769.94
2022-11-13T08:06:27.564Z,98770.72
2022-11-13T08:11:47.630Z,98761.72
2022-11-13T08:17:07.901Z,98768.97
2022-11-13T08:22:28.095Z,98765.88
2022-11-13T08:27:48.478Z,98753.22
2022-11-13T08:33:08.669Z,98748.81
2022-11-13T08:38:29.202Z,98744.63
2022-11-13T08:43:49.407Z,98748.91
2022-11-13T08:49:09.736Z,98744.31
2022-11-13T08:54:30.019Z,98735.97
2022-11-13T08:59:50.110Z,98729.88
2022-11-13T09:05:10.884Z,98724.00
2022-11-13T09:10:31.145Z,98721.28
2022-11-13T09:15:51.536Z,98720.19
2022-11-13T09:21:11.941Z,98726.69
2022-11-13T09:26:32.347Z,98729.91
2022-11-13T09:31:52.490Z,98728.34
2022-11-13T09:37:14.971Z,98721.94
2022-11-13T09:42:40.334Z,98719.19
2022-11-13T09:48:29.528Z,98710.97
2022-11-13T09:53:50.211Z,98704.91
2022-11-13T09:59:24.807Z,98699.31
2022-11-13T10:05:28.915Z,98691.84
2022-11-13T10:10:58.116Z,98690.13
2022-11-13T10:16:32.070Z,98696.50
2022-11-13T10:22:32.704Z,98678.03
2022-11-13T10:27:57.045Z,98678.81
2022-11-13T10:33:20.245Z,98670.72
2022-11-13T10:38:50.082Z,98655.19
2022-11-13T10:44:26.214Z,98656.97
2022-11-13T10:49:46.242Z,98653.31
2022-11-13T10:55:34.688Z,98644.53
2022-11-13T11:00:54.674Z,98639.97
2022-11-13T11:06:14.963Z,98628.38
2022-11-13T11:11:54.231Z,98623.34
2022-11-13T11:17:18.529Z,98615.41
2022-11-13T11:22:40.788Z,98616.22
2022-11-13T11:28:07.407Z,98615.44
2022-11-13T11:33:52.525Z,98605.28
2022-11-13T11:39:30.207Z,98604.16
2022-11-13T11:45:01.509Z,98600.66
2022-11-13T11:50:47.770Z,98603.88
2022-11-13T11:56:20.077Z,98592.78
2022-11-13T12:02:04.708Z,98594.19
2022-11-13T12:07:34.082Z,98585.69
2022-11-13T12:13:31.617Z,98575.09
2022-11-13T12:19:24.083Z,98566.84
2022-11-13T12:25:20.376Z,98549.31
2022-11-13T12:31:00.094Z,98537.47
2022-11-13T12:36:21.440Z,98531.25
2022-11-13T12:42:00.875Z,98515.25
2022-11-13T12:47:21.385Z,98517.81
2022-11-13T12:52:41.551Z,98511.97
2022-11-13T12:58:40.465Z,98501.19
2022-11-13T13:04:26.368Z,98491.94
2022-11-13T13:10:07.162Z,98479.63
2022-11-13T13:15:37.853Z,98468.69
2022-11-13T13:21:03.615Z,98463.81
2022-11-13T13:26:26.619Z,98465.63
2022-11-13T13:31:57.014Z,98465.03
2022-11-13T13:37:43.204Z,98456.13
2022-11-13T13:43:12.343Z,98466.50
2022-11-13T13:48:36.952Z,98462.81
2022-11-13T13:54:00.573Z,98445.13
2022-11-13T13:59:29.020Z,98437.56
2022-11-13T14:04:54.633Z,98444.75
2022-11-13T14:10:24.045Z,98440.31
2022-11-13T14:15:44.635Z,98434.69
2022-11-13T14:21:25.033Z,98435.75
2022-11-13T14:26:46.118Z,98424.31
2022-11-13T14:32:13.317Z,98416.41
2022-11-13T14:37:39.345Z,98401.78
2022-11-13T14:43:07.664Z,98403.38
2022-11-13T14:48:33.579Z,98404.91
2022-11-13T14:55:08.097Z,98399.63
2022-11-13T15:00:28.881Z,98393.47
2022-11-13T15:05:49.697Z,98395.78
2022-11-13T15:11:14.418Z,98414.56
2022-11-13T15:16:35.973Z,98404.31
2022-11-13T15:22:25.372Z,98407.97
2022-11-13T15:27:41.835Z,98403.56
2022-11-13T15:33:12.413Z,98403.81
2022-11-13T15:38:32.763Z,98405.66
2022-11-13T15:43:55.655Z,98402.56
2022-11-13T15:49:15.780Z,98401.66
2022-11-13T15:54:38.703Z,98389.44
2022-11-13T15:59:59.154Z,98396.19
2022-11-13T16:05:19.960Z,98393.88
2022-11-13T16:10:40.372Z,98393.50
2022-11-13T16:16:01.130Z,98393.25
2022-11-13T16:21:22.289Z,98401.25
2022-11-13T16:26:50.709Z,98409.91
2022-11-13T16:32:16.653Z,98407.78
2022-11-13T16:37:36.745Z,98406.63
2022-11-13T16:42:57.762Z,98404.22
2022-11-13T16:48:18.512Z,98403.81
2022-11-13T16:53:38.670Z,98402.22
2022-11-13T16:58:59.488Z,98403.28
2022-11-13T17:04:20.038Z,98399.06
2022-11-13T17:09:41.837Z,98405.88
2022-11-13T17:15:01.816Z,98390.69
2022-11-13T17:20:22.390Z,98386.25
2022-11-13T17:25:42.806Z,98386.34
2022-11-13T17:31:04.767Z,98391.38
2022-11-13T17:36:25.055Z,98378.78
2022-11-13T17:41:45.362Z,98375.56
2022-11-13T17:47:05.502Z,98365.72
2022-11-13T17:52:25.680Z,98374.25
2022-11-13T17:57:45.848Z,98377.47
2022-11-13T18:03:06.269Z,98362.38
2022-11-13T18:08:26.501Z,98374.03
2022-11-13T18:13:48.223Z,98358.84
2022-11-13T18:19:09.291Z,98362.53
2022-11-13T18:24:29.396Z,98357.13
2022-11-13T18:29:49.442Z,98350.44
2022-11-13T18:35:09.938Z,98348.13
2022-11-13T18:40:29.822Z,98339.56
2022-11-13T18:46:00.996Z,98342.69
2022-11-13T18:51:23.654Z,98338.81
2022-11-13T18:56:44.067Z,98352.22
2022-11-13T19:02:04.498Z,98341.16
2022-11-13T19:07:24.847Z,98347.47
2022-11-13T19:12:44.885Z,98332.25
2022-11-13T19:18:06.578Z,98329.66
2022-11-13T19:23:26.519Z,98333.66
2022-11-13T19:28:48.692Z,98330.22
2022-11-13T19:34:08.773Z,98332.53
2022-11-13T19:39:29.181Z,98326.00
2022-11-13T19:44:49.228Z,98325.25
2022-11-13T19:50:10.318Z,98319.13
2022-11-13T19:55:30.861Z,98325.22
2022-11-13T20:00:52.843Z,98315.91
2022-11-13T20:06:16.417Z,98327.63
2022-11-13T20:11:36.795Z,98325.56
2022-11-13T20:16:57.076Z,98326.41
2022-11-13T20:22:17.278Z,98333.31
2022-11-13T20:27:37.798Z,98321.31
2022-11-13T20:32:58.298Z,98317.50
2022-11-13T20:38:18.589Z,98312.03
2022-11-13T20:43:38.970Z,98326.06
2022-11-13T20:48:59.294Z,98314.34
2022-11-13T20:54:19.230Z,98317.78
2022-11-13T20:59:39.512Z,98317.25
2022-11-13T21:04:59.745Z,98317.25
2022-11-13T21:10:20.006Z,98314.53
2022-11-13T21:15:40.182Z,98318.63
2022-11-13T21:21:08.512Z,98316.47
2022-11-13T21:26:29.039Z,98301.78
2022-11-13T21:31:48.992Z,98292.88
2022-11-13T21:37:10.946Z,98281.59
2022-11-13T21:42:30.965Z,98275.47
2022-11-13T21:47:52.742Z,98267.78
2022-11-13T21:53:12.976Z,98256.25
2022-11-13T21:58:36.124Z,98262.22
2022-11-13T22:03:56.221Z,98252.00
2022-11-13T22:09:22.430Z,98245.03
2022-11-13T22:14:42.483Z,98242.38
2022-11-13T22:20:02.772Z,98229.53
2022-11-13T22:25:23.019Z,98232.31
2022-11-13T22:30:46.126Z,98222.97
2022-11-13T22:36:09.854Z,98212.81
2022-11-13T22:41:32.327Z,98195.72
2022-11-13T22:46:52.270Z,98200.63
2022-11-13T22:52:12.513Z,98198.50
2022-11-13T22:57:32.771Z,98207.31
2022-11-13T23:02:53.141Z,98197.38
2022-11-13T23:08:13.361Z,98182.69
2022-11-13T23:13:34.071Z,98182.44
2022-11-13T23:18:56.108Z,98171.56
2022-11-13T23:24:16.320Z,98181.88
2022-11-13T23:29:36.649Z,98171.63
2022-11-13T23:34:59.513Z,98160.31
2022-11-13T23:40:20.197Z,98163.94
2022-11-13T23:45:40.402Z,98146.03
2022-11-13T23:51:01.678Z,98143.47
2022-11-13T23:56:21.810Z,98138.97
